createdAt,value
2023-02-25T00:01:39.923Z,98870.00
2023-02-25T00:04:06.923Z,98872.00
2023-02-25T00:06:33.696Z,98861.00
2023-02-25T00:09:01.040Z,98867.00
2023-02-25T00:11:28.309Z,98852.00
2023-02-25T00:13:55.362Z,98850.00
2023-02-25T00:16:24.812Z,98845.00
2023-02-25T00:18:58.727Z,98847.00
2023-02-25T00:21:26.172Z,98851.00
2023-02-25T00:23:53.725Z,98851.00
2023-02-25T00:26:22.042Z,98880.00
2023-02-25T00:28:49.642Z,98889.00
2023-02-25T00:31:25.335Z,98900.00
2023-02-25T00:33:53.096Z,98899.00
2023-02-25T00:36:24.562Z,98901.00
2023-02-25T00:38:57.376Z,98904.00
2023-02-25T00:41:29.078Z,98906.00
2023-02-25T00:44:03.299Z,98902.00
2023-02-25T00:46:32.695Z,98911.00
2023-02-25T00:49:00.366Z,98904.00
2023-02-25T00:51:31.278Z,98896.00
2023-02-25T00:53:58.728Z,98896.00
2023-02-25T00:56:26.692Z,98885.00
2023-02-25T00:58:54.104Z,98891.00
2023-02-25T01:01:33.228Z,98871.00
2023-02-25T01:04:01.290Z,98872.00
2023-02-25T01:06:30.110Z,98881.00
2023-02-25T01:08:59.284Z,98865.00
2023-02-25T01:11:32.874Z,98875.00
2023-02-25T01:14:05.709Z,98863.00
2023-02-25T01:16:34.548Z,98874.00
2023-02-25T01:19:06.794Z,98874.00
2023-02-25T01:21:38.525Z,98868.00
2023-02-25T01:24:28.641Z,98869.00
2023-02-25T01:26:59.686Z,98862.00
2023-02-25T01:29:39.083Z,98867.00
2023-02-25T01:32:10.534Z,98866.00
2023-02-25T01:34:39.957Z,98855.00
2023-02-25T01:37:07.464Z,98865.00
2023-02-25T01:39:34.548Z,98855.00
2023-02-25T01:42:12.551Z,98859.00
2023-02-25T01:45:17.640Z,98861.00
2023-02-25T01:48:02.406Z,98863.00
2023-02-25T01:50:42.123Z,98859.00
2023-02-25T01:53:09.797Z,98858.00
2023-02-25T01:55:39.576Z,98853.00
2023-02-25T01:58:07.481Z,98851.00
2023-02-25T02:00:35.433Z,98869.00
2023-02-25T02:03:02.759Z,98866.00
2023-02-25T02:06:03.227Z,98875.00
2023-02-25T02:08:31.980Z,98867.00
2023-02-25T02:10:59.081Z,98864.00
2023-02-25T02:13:26.503Z,98878.00
2023-02-25T02:16:38.409Z,98855.00
2023-02-25T02:19:52.132Z,98862.00
2023-02-25T02:22:40.812Z,98852.00
2023-02-25T02:25:44.382Z,98871.00
2023-02-25T02:28:55.254Z,98856.00
2023-02-25T02:31:56.673Z,98860.00
2023-02-25T02:35:09.353Z,98866.00
2023-02-25T02:38:12.268Z,98865.00
2023-02-25T02:41:08.793Z,98859.00
2023-02-25T02:43:49.503Z,98850.00
2023-02-25T02:46:31.844Z,98851.00
2023-02-25T02:49:12.354Z,98863.00
2023-02-25T02:51:49.002Z,98864.00
2023-02-25T02:54:18.260Z,98863.00
2023-02-25T02:56:50.583Z,98856.00
2023-02-25T02:59:27.492Z,98874.00
2023-02-25T03:02:08.711Z,98871.00
2023-02-25T03:04:41.735Z,98884.00
2023-02-25T03:07:12.376Z,98883.00
2023-02-25T03:09:50.863Z,98883.00
2023-02-25T03:12:18.352Z,98889.00
2023-02-25T03:14:45.236Z,98893.00
2023-02-25T03:17:25.173Z,98900.00
2023-02-25T03:20:13.526Z,98909.00
2023-02-25T03:22:46.884Z,98910.00
2023-02-25T03:25:32.837Z,98921.00
2023-02-25T03:28:11.957Z,98911.00
2023-02-25T03:30:48.074Z,98915.00
2023-02-25T03:33:51.586Z,98933.00
2023-02-25T03:36:41.217Z,98939.00
2023-02-25T03:39:41.335Z,98942.00
2023-02-25T03:42:14.483Z,98943.00
2023-02-25T03:44:47.738Z,98931.00
2023-02-25T03:47:16.987Z,98939.00
2023-02-25T03:49:59.628Z,98951.00
2023-02-25T03:52:28.381Z,98957.00
2023-02-25T03:54:57.908Z,98954.00
2023-02-25T03:57:35.693Z,98952.00
2023-02-25T04:00:13.590Z,98957.00
2023-02-25T04:02:40.569Z,98954.00
2023-02-25T04:05:08.764Z,98957.00
2023-02-25T04:07:35.487Z,98964.00
2023-02-25T04:10:04.593Z,98968.00
2023-02-25T04:12:31.548Z,98968.00
2023-02-25T04:14:58.259Z,98971.00
2023-02-25T04:17:25.042Z,98970.00
2023-02-25T04:19:51.795Z,98977.00
2023-02-25T04:22:18.510Z,98986.00
2023-02-25T04:24:45.298Z,98987.00
2023-02-25T04:27:15.488Z,98991.00
2023-02-25T04:29:43.797Z,98999.00
2023-02-25T04:32:11.895Z,98989.00
2023-02-25T04:34:39.151Z,99000.00
2023-02-25T04:37:06.183Z,99010.00
2023-02-25T04:39:33.522Z,98998.00
2023-02-25T04:42:00.541Z,98994.00
2023-02-25T04:44:27.456Z,99002.00
2023-02-25T04:46:54.315Z,99016.00
2023-02-25T04:49:22.421Z,99014.00
2023-02-25T04:51:51.387Z,99017.00
2023-02-25T04:54:20.900Z,99030.00
2023-02-25T04:56:48.533Z,99019.00
2023-02-25T04:59:16.257Z,99023.00
2023-02-25T05:01:44.016Z,99023.00
2023-02-25T05:04:11.251Z,99018.00
2023-02-25T05:06:39.221Z,99030.00
2023-02-25T05:09:06.058Z,99027.00
2023-02-25T05:11:32.893Z,99029.00
2023-02-25T05:13:59.602Z,99028.00
2023-02-25T05:16:28.012Z,99029.00
2023-02-25T05:18:55.032Z,99024.00
2023-02-25T05:21:25.082Z,99043.00
2023-02-25T05:23:54.111Z,99035.00
2023-02-25T05:26:25.045Z,99041.00
2023-02-25T05:28:57.312Z,99040.00
2023-02-25T05:31:26.024Z,99041.00
2023-02-25T05:33:53.534Z,99040.00
2023-02-25T05:36:20.678Z,99056.00
2023-02-25T05:38:49.164Z,99042.00
2023-02-25T05:41:16.366Z,99050.00
2023-02-25T05:43:45.222Z,99044.00
2023-02-25T05:46:13.951Z,99065.00
2023-02-25T05:48:46.659Z,99071.00
2023-02-25T05:51:18.417Z,99076.00
2023-02-25T05:53:47.804Z,99078.00
2023-02-25T05:56:19.353Z,99085.00
2023-02-25T05:58:48.377Z,99096.00
2023-02-25T06:01:23.503Z,99088.00
2023-02-25T06:03:58.678Z,99105.00
2023-02-25T06:06:28.740Z,99107.00
2023-02-25T06:08:55.853Z,99108.00
2023-02-25T06:11:27.315Z,99107.00
2023-02-25T06:13:56.538Z,99118.00
2023-02-25T06:16:25.806Z,99120.00
2023-02-25T06:18:53.490Z,99123.00
2023-02-25T06:21:20.297Z,99134.00
2023-02-25T06:23:50.085Z,99134.00
2023-02-25T06:26:18.041Z,99147.00
2023-02-25T06:28:45.155Z,99154.00
2023-02-25T06:31:18.363Z,99160.00
2023-02-25T06:33:46.772Z,99164.00
2023-02-25T06:36:15.407Z,99166.00
2023-02-25T06:38:43.271Z,99179.00
2023-02-25T06:41:15.695Z,99173.00
2023-02-25T06:43:43.753Z,99190.00
2023-02-25T06:46:14.348Z,99188.00
2023-02-25T06:48:41.141Z,99202.00
2023-02-25T06:51:09.548Z,99212.00
2023-02-25T06:53:37.916Z,99209.00
2023-02-25T06:56:05.384Z,99209.00
2023-02-25T06:58:32.793Z,99216.00
2023-02-25T07:00:59.747Z,99214.00
2023-02-25T07:03:26.903Z,99221.00
2023-02-25T07:05:53.647Z,99224.00
2023-02-25T07:08:20.344Z,99234.00
2023-02-25T07:10:47.124Z,99242.00
2023-02-25T07:13:13.950Z,99250.00
2023-02-25T07:15:40.690Z,99254.00
2023-02-25T07:18:07.498Z,99272.00
2023-02-25T07:20:34.336Z,99265.00
2023-02-25T07:23:04.372Z,99258.00
2023-02-25T07:25:31.275Z,99270.00
2023-02-25T07:27:58.096Z,99275.00
2023-02-25T07:30:24.847Z,99272.00
2023-02-25T07:32:51.586Z,99268.00
2023-02-25T07:35:18.391Z,99275.00
2023-02-25T07:37:45.111Z,99292.00
2023-02-25T07:40:16.792Z,99276.00
2023-02-25T07:42:43.590Z,99282.00
2023-02-25T07:45:12.116Z,99295.00
2023-02-25T07:47:39.217Z,99298.00
2023-02-25T07:50:12.311Z,99300.00
2023-02-25T07:52:39.548Z,99296.00
2023-02-25T07:55:07.306Z,99316.00
2023-02-25T07:57:35.695Z,99298.00
2023-02-25T08:00:04.506Z,99314.00
2023-02-25T08:02:31.242Z,99319.00
2023-02-25T08:04:58.003Z,99325.00
2023-02-25T08:07:26.621Z,99329.00
2023-02-25T08:09:54.632Z,99325.00
2023-02-25T08:12:21.363Z,99332.00
2023-02-25T08:14:48.096Z,99335.00
2023-02-25T08:17:14.874Z,99338.00
2023-02-25T08:19:41.899Z,99345.00
2023-02-25T08:22:11.890Z,99345.00
2023-02-25T08:24:42.002Z,99342.00
2023-02-25T08:27:09.414Z,99357.00
2023-02-25T08:29:37.010Z,99367.00
2023-02-25T08:32:06.766Z,99359.00
2023-02-25T08:34:35.061Z,99360.00
2023-02-25T08:37:01.804Z,99372.00
2023-02-25T08:39:29.259Z,99374.00
2023-02-25T08:41:55.982Z,99383.00
2023-02-25T08:44:23.181Z,99376.00
2023-02-25T08:46:50.105Z,99381.00
2023-02-25T08:49:16.853Z,99396.00
2023-02-25T08:51:43.610Z,99394.00
2023-02-25T08:54:14.654Z,99396.00
2023-02-25T08:56:44.220Z,99406.00
2023-02-25T08:59:14.767Z,99418.00
2023-02-25T09:01:44.769Z,99412.00
2023-02-25T09:04:18.064Z,99421.00
2023-02-25T09:06:48.894Z,99437.00
2023-02-25T09:09:17.609Z,99442.00
2023-02-25T09:11:46.000Z,99429.00
2023-02-25T09:14:13.993Z,99433.00
2023-02-25T09:16:41.001Z,99450.00
2023-02-25T09:19:07.829Z,99446.00
2023-02-25T09:21:36.092Z,99458.00
2023-02-25T09:24:02.964Z,99463.00
2023-02-25T09:26:29.758Z,99459.00
2023-02-25T09:29:00.372Z,99468.00
2023-02-25T09:31:27.742Z,99473.00
2023-02-25T09:33:54.788Z,99477.00
2023-02-25T09:36:22.284Z,99486.00
2023-02-25T09:38:50.642Z,99483.00
2023-02-25T09:41:48.364Z,99488.00
2023-02-25T09:44:33.957Z,99488.00
2023-02-25T09:47:42.517Z,99495.00
2023-02-25T09:50:21.565Z,99494.00
2023-02-25T09:53:15.555Z,99511.00
2023-02-25T09:55:48.272Z,99505.00
2023-02-25T09:58:36.134Z,99514.00
2023-02-25T10:01:34.869Z,99511.00
2023-02-25T10:04:17.535Z,99515.00
2023-02-25T10:06:49.304Z,99521.00
2023-02-25T10:09:34.011Z,99527.00
2023-02-25T10:12:15.562Z,99533.00
2023-02-25T10:15:16.003Z,99535.00
2023-02-25T10:18:24.065Z,99537.00
2023-02-25T10:20:59.945Z,99550.00
2023-02-25T10:24:06.255Z,99557.00
2023-02-25T10:26:39.415Z,99568.00
2023-02-25T10:29:14.222Z,99570.00
2023-02-25T10:31:46.074Z,99579.00
2023-02-25T10:34:26.296Z,99573.00
2023-02-25T10:37:00.819Z,99583.00
2023-02-25T10:39:29.187Z,99576.00
2023-02-25T10:41:56.294Z,99583.00
2023-02-25T10:44:23.050Z,99582.00
2023-02-25T10:47:07.093Z,99599.00
2023-02-25T10:49:38.357Z,99597.00
2023-02-25T10:52:23.389Z,99604.00
2023-02-25T10:54:53.061Z,99604.00
2023-02-25T10:57:41.878Z,99605.00
2023-02-25T11:00:32.202Z,99618.00
2023-02-25T11:03:01.702Z,99612.00
2023-02-25T11:05:40.858Z,99606.00
2023-02-25T11:08:31.780Z,99607.00
2023-02-25T11:11:14.135Z,99615.00
2023-02-25T11:13:41.458Z,99623.00
2023-02-25T11:16:13.490Z,99616.00
2023-02-25T11:18:41.814Z,99620.00
2023-02-25T11:21:13.498Z,99621.00
2023-02-25T11:23:47.976Z,99634.00
2023-02-25T11:26:30.232Z,99656.00
2023-02-25T11:29:14.820Z,99647.00
2023-02-25T11:31:43.662Z,99652.00
2023-02-25T11:34:25.552Z,99655.00
2023-02-25T11:36:52.863Z,99654.00
2023-02-25T11:39:25.716Z,99647.00
2023-02-25T11:42:01.707Z,99646.00
2023-02-25T11:44:44.768Z,99650.00
2023-02-25T11:47:28.880Z,99659.00
2023-02-25T11:50:33.141Z,99655.00
2023-02-25T11:53:30.648Z,99668.00
2023-02-25T11:56:14.172Z,99660.00
2023-02-25T11:58:51.175Z,99674.00
2023-02-25T12:01:57.759Z,99684.00
2023-02-25T12:05:03.758Z,99692.00
2023-02-25T12:08:12.425Z,99676.00
2023-02-25T12:11:24.629Z,99706.00
2023-02-25T12:14:38.601Z,99697.00
2023-02-25T12:17:53.474Z,99701.00
2023-02-25T12:20:52.074Z,99716.00
2023-02-25T12:24:11.552Z,99716.00
2023-02-25T12:27:32.226Z,99717.00
2023-02-25T12:30:29.846Z,99723.00
2023-02-25T12:33:22.287Z,99726.00
2023-02-25T12:36:40.953Z,99727.00
2023-02-25T12:39:46.786Z,99734.00
2023-02-25T12:42:49.608Z,99741.00
2023-02-25T12:45:39.380Z,99740.00
2023-02-25T12:48:48.630Z,99756.00
2023-02-25T12:51:54.358Z,99758.00
2023-02-25T12:54:57.597Z,99758.00
2023-02-25T12:57:59.023Z,99763.00
2023-02-25T13:00:53.879Z,99777.00
2023-02-25T13:03:47.372Z,99772.00
2023-02-25T13:06:38.648Z,99784.00
2023-02-25T13:09:26.280Z,99788.00
2023-02-25T13:12:13.193Z,99791.00
2023-02-25T13:15:09.103Z,99787.00
2023-02-25T13:18:16.568Z,99803.00
2023-02-25T13:21:00.508Z,99801.00
2023-02-25T13:24:14.444Z,99817.00
2023-02-25T13:27:05.136Z,99813.00
2023-02-25T13:29:41.133Z,99817.00
2023-02-25T13:32:46.255Z,99829.00
2023-02-25T13:35:56.463Z,99837.00
2023-02-25T13:39:08.077Z,99842.00
2023-02-25T13:42:04.155Z,99854.00
2023-02-25T13:45:01.417Z,99852.00
2023-02-25T13:47:59.488Z,99852.00
2023-02-25T13:51:12.532Z,99858.00
2023-02-25T13:54:23.719Z,99857.00
2023-02-25T14:00:35.212Z,99866.00
2023-02-25T14:03:48.484Z,99875.00
2023-02-25T14:07:05.536Z,99885.00
2023-02-25T14:09:58.754Z,99883.00
2023-02-25T14:13:01.180Z,99886.00
2023-02-25T14:15:47.394Z,99896.00
2023-02-25T14:18:56.584Z,99898.00
2023-02-25T14:22:01.482Z,99914.00
2023-02-25T14:24:35.725Z,99910.00
2023-02-25T14:27:51.007Z,99954.00
2023-02-25T14:30:25.232Z,99930.00
2023-02-25T14:33:18.559Z,99925.00
2023-02-25T14:36:04.926Z,99937.00
2023-02-25T14:38:48.752Z,99930.00
2023-02-25T14:41:54.099Z,99941.00
2023-02-25T14:44:40.217Z,99941.00
2023-02-25T14:47:32.087Z,99955.00
2023-02-25T14:50:32.223Z,99972.00
2023-02-25T14:53:40.297Z,99957.00
2023-02-25T14:56:26.014Z,99986.00
2023-02-25T14:59:06.916Z,99977.00
2023-02-25T15:01:53.662Z,99970.00
2023-02-25T15:05:00.431Z,99977.00
2023-02-25T15:08:09.195Z,99983.00
2023-02-25T15:11:03.029Z,99977.00
2023-02-25T15:13:53.873Z,99995.00
2023-02-25T15:17:17.040Z,99996.00
2023-02-25T15:20:16.426Z,99993.00
2023-02-25T15:23:11.774Z,99993.00
2023-02-25T15:25:41.837Z,100000.00
2023-02-25T15:28:30.686Z,100000.00
2023-02-25T15:31:00.638Z,100012.00
2023-02-25T15:33:35.680Z,100024.00
2023-02-25T15:36:27.739Z,100028.00
2023-02-25T15:38:56.723Z,100032.00
2023-02-25T15:41:29.305Z,100036.00
2023-02-25T15:44:20.188Z,100045.00
2023-02-25T15:46:49.176Z,100045.00
2023-02-25T15:49:37.728Z,100055.00
2023-02-25T15:52:06.490Z,100054.00
2023-02-25T15:54:33.096Z,100052.00
2023-02-25T15:57:04.874Z,100058.00
2023-02-25T15:59:55.301Z,100062.00
2023-02-25T16:02:31.386Z,100061.00
2023-02-25T16:05:18.725Z,100066.00
2023-02-25T16:07:50.912Z,100078.00
2023-02-25T16:10:39.053Z,100080.00
2023-02-25T16:13:17.048Z,100096.00
2023-02-25T16:15:52.758Z,100101.00
2023-02-25T16:18:50.146Z,100120.00
2023-02-25T16:21:42.898Z,100124.00
2023-02-25T16:24:12.441Z,100132.00
2023-02-25T16:27:01.313Z,100123.00
2023-02-25T16:30:02.797Z,100136.00
2023-02-25T16:32:57.115Z,100141.00
2023-02-25T16:35:33.710Z,100146.00
2023-02-25T16:38:50.650Z,100144.00
2023-02-25T16:41:17.662Z,100153.00
2023-02-25T16:43:45.776Z,100147.00
2023-02-25T16:46:21.882Z,100165.00
2023-02-25T16:49:00.393Z,100163.00
2023-02-25T16:51:32.992Z,100190.00
2023-02-25T16:54:10.165Z,100180.00
2023-02-25T16:56:37.506Z,100183.00
2023-02-25T16:59:15.326Z,100202.00
2023-02-25T17:01:57.377Z,100200.00
2023-02-25T17:04:31.863Z,100196.00
2023-02-25T17:07:25.213Z,100206.00
2023-02-25T17:10:02.382Z,100196.00
2023-02-25T17:12:45.426Z,100220.00
2023-02-25T17:15:29.290Z,100218.00
2023-02-25T17:18:26.555Z,100220.00
2023-02-25T17:21:35.355Z,100216.00
2023-02-25T17:24:07.141Z,100241.00
2023-02-25T17:26:39.264Z,100241.00
2023-02-25T17:29:14.079Z,100233.00
2023-02-25T17:31:58.896Z,100245.00
2023-02-25T17:34:31.759Z,100248.00
2023-02-25T17:37:03.853Z,100247.00
2023-02-25T17:39:31.200Z,100252.00
2023-02-25T17:41:58.013Z,100256.00
2023-02-25T17:44:37.667Z,100273.00
2023-02-25T17:47:07.196Z,100269.00
2023-02-25T17:49:36.857Z,100274.00
2023-02-25T17:52:18.356Z,100281.00
2023-02-25T17:54:58.397Z,100294.00
2023-02-25T17:57:28.076Z,100286.00
2023-02-25T18:00:19.089Z,100287.00
2023-02-25T18:02:46.153Z,100288.00
2023-02-25T18:05:12.840Z,100285.00
2023-02-25T18:08:02.438Z,100297.00
2023-02-25T18:10:31.879Z,100296.00
2023-02-25T18:13:02.056Z,100298.00
2023-02-25T18:15:34.317Z,100291.00
2023-02-25T18:18:05.551Z,100306.00
2023-02-25T18:20:36.341Z,100297.00
2023-02-25T18:23:08.489Z,100307.00
2023-02-25T18:25:43.019Z,100315.00
2023-02-25T18:28:17.296Z,100330.00
2023-02-25T18:30:45.324Z,100332.00
2023-02-25T18:33:13.230Z,100330.00
2023-02-25T18:35:43.444Z,100334.00
2023-02-25T18:38:20.628Z,100340.00
2023-02-25T18:40:49.855Z,100334.00
2023-02-25T18:43:20.168Z,100346.00
2023-02-25T18:45:47.103Z,100347.00
2023-02-25T18:48:14.750Z,100341.00
2023-02-25T18:50:44.437Z,100343.00
2023-02-25T18:53:18.770Z,100360.00
2023-02-25T18:55:46.540Z,100349.00
2023-02-25T18:58:16.078Z,100359.00
2023-02-25T19:00:48.129Z,100361.00
2023-02-25T19:03:24.509Z,100372.00
2023-02-25T19:05:51.314Z,100374.00
2023-02-25T19:08:18.920Z,100378.00
2023-02-25T19:10:46.418Z,100381.00
2023-02-25T19:13:27.393Z,100379.00
2023-02-25T19:15:54.235Z,100380.00
2023-02-25T19:18:21.048Z,100382.00
2023-02-25T19:20:48.430Z,100392.00
2023-02-25T19:23:17.891Z,100386.00
2023-02-25T19:25:47.517Z,100388.00
2023-02-25T19:28:14.280Z,100408.00
2023-02-25T19:30:43.586Z,100411.00
2023-02-25T19:33:12.550Z,100401.00
2023-02-25T19:35:42.599Z,100410.00
2023-02-25T19:38:16.037Z,100419.00
2023-02-25T19:40:44.273Z,100419.00
2023-02-25T19:43:12.470Z,100428.00
2023-02-25T19:45:40.749Z,100424.00
2023-02-25T19:48:07.929Z,100423.00
2023-02-25T19:50:35.448Z,100422.00
2023-02-25T19:53:05.522Z,100442.00
2023-02-25T19:55:33.408Z,100438.00
2023-02-25T19:58:00.377Z,100423.00
2023-02-25T20:00:27.309Z,100436.00
2023-02-25T20:02:54.635Z,100441.00
2023-02-25T20:05:23.080Z,100460.00
2023-02-25T20:07:50.718Z,100446.00
2023-02-25T20:10:18.472Z,100453.00
2023-02-25T20:12:48.124Z,100461.00
2023-02-25T20:15:16.524Z,100464.00
2023-02-25T20:17:46.195Z,100469.00
2023-02-25T20:20:15.371Z,100469.00
2023-02-25T20:22:43.232Z,100476.00
2023-02-25T20:25:13.276Z,100474.00
2023-02-25T20:27:43.343Z,100476.00
2023-02-25T20:30:14.833Z,100479.00
2023-02-25T20:32:44.061Z,100487.00
2023-02-25T20:35:21.237Z,100491.00
2023-02-25T20:38:27.216Z,100490.00
2023-02-25T20:40:54.047Z,100493.00
2023-02-25T20:43:21.279Z,100496.00
2023-02-25T20:45:48.257Z,100497.00
2023-02-25T20:48:31.425Z,100500.00
2023-02-25T20:50:59.007Z,100517.00
2023-02-25T20:53:26.236Z,100511.00
2023-02-25T20:55:57.140Z,100516.00
2023-02-25T20:58:23.877Z,100512.00
2023-02-25T21:00:50.712Z,100520.00
2023-02-25T21:03:18.146Z,100528.00
2023-02-25T21:05:45.301Z,100515.00
2023-02-25T21:08:12.140Z,100537.00
2023-02-25T21:10:38.944Z,100528.00
2023-02-25T21:13:05.663Z,100539.00
2023-02-25T21:15:32.397Z,100540.00
2023-02-25T21:17:59.151Z,100531.00
2023-02-25T21:20:25.901Z,100548.00
2023-02-25T21:22:52.614Z,100557.00
2023-02-25T21:25:19.467Z,100539.00
2023-02-25T21:27:46.219Z,100552.00
2023-02-25T21:30:13.580Z,100557.00
2023-02-25T21:32:40.311Z,100552.00
2023-02-25T21:35:07.405Z,100552.00
2023-02-25T21:37:34.139Z,100560.00
2023-02-25T21:40:00.879Z,100558.00
2023-02-25T21:42:27.639Z,100561.00
2023-02-25T21:44:54.356Z,100563.00
2023-02-25T21:47:21.204Z,100569.00
2023-02-25T21:49:47.954Z,100569.00
2023-02-25T21:52:16.418Z,100569.00
2023-02-25T21:54:43.473Z,100588.00
2023-02-25T21:57:10.268Z,100583.00
2023-02-25T21:59:37.417Z,100593.00
2023-02-25T22:02:05.146Z,100594.00
2023-02-25T22:04:31.917Z,100583.00
2023-02-25T22:06:58.712Z,100583.00
2023-02-25T22:09:25.897Z,100592.00
2023-02-25T22:11:52.615Z,100587.00
2023-02-25T22:14:19.666Z,100591.00
2023-02-25T22:16:46.445Z,100582.00
2023-02-25T22:19:13.179Z,100597.00
2023-02-25T22:21:39.891Z,100597.00
2023-02-25T22:24:07.353Z,100607.00
2023-02-25T22:26:36.523Z,100610.00
2023-02-25T22:29:09.761Z,100614.00
2023-02-25T22:31:37.692Z,100612.00
2023-02-25T22:34:06.351Z,100615.00
2023-02-25T22:36:33.231Z,100615.00
2023-02-25T22:39:08.548Z,100621.00
2023-02-25T22:41:37.175Z,100624.00
2023-02-25T22:44:05.509Z,100610.00
2023-02-25T22:46:38.878Z,100626.00
2023-02-25T22:49:08.848Z,100622.00
2023-02-25T22:51:43.455Z,100633.00
2023-02-25T22:54:13.066Z,100632.00
2023-02-25T22:56:40.320Z,100629.00
2023-02-25T22:59:07.678Z,100633.00
2023-02-25T23:01:34.983Z,100645.00
2023-02-25T23:04:02.187Z,100648.00
2023-02-25T23:06:42.926Z,100653.00
2023-02-25T23:09:11.580Z,100656.00
2023-02-25T23:11:44.142Z,100662.00
2023-02-25T23:14:12.016Z,100658.00
2023-02-25T23:16:45.054Z,100664.00
2023-02-25T23:19:16.525Z,100655.00
2023-02-25T23:21:44.055Z,100664.00
2023-02-25T23:24:18.451Z,100667.00
2023-02-25T23:26:50.115Z,100674.00
2023-02-25T23:29:16.881Z,100670.00
2023-02-25T23:31:47.058Z,100674.00
2023-02-25T23:34:23.609Z,100684.00
2023-02-25T23:36:50.847Z,100694.00
2023-02-25T23:39:20.688Z,100687.00
2023-02-25T23:44:15.692Z,100696.00
2023-02-25T23:46:45.314Z,100690.00
2023-02-25T23:49:16.370Z,100701.00
2023-02-25T23:51:46.057Z,100699.00
2023-02-25T23:54:16.489Z,100710.00
2023-02-25T23:56:43.792Z,100703.00
2023-02-25T23:59:10.936Z,100708.00
